Time;durP1;ratioP1;P1;durP2;ratioP2;P2;SDS_P1;SDS_P2;PMS_P1;PMS_P2;Temp;Humidity;BMP_temperature;BMP_pressure;BME280_temperature;BME280_humidity;BME280_pressure;Samples;Min_cycle;Max_cycle;Signal;HPM_P1;HPM_P2
2022/10/18 00:03:33;;;;;;;33.70;19.60;;;;;;;14.05;62.06;100088.67;227615;1241;142484;-61
2022/10/18 00:08:38;;;;;;;34.50;19.30;;;;;;;13.96;61.90;100093.08;227731;1233;139327;-61
2022/10/18 00:13:41;;;;;;;33.80;19.10;;;;;;;13.88;62.00;100088.77;227646;1234;140112;-61
2022/10/18 00:18:47;;;;;;;29.80;19.30;;;;;;;13.78;62.11;100083.23;227739;1227;139353;-61
2022/10/18 00:23:51;;;;;;;30.50;19.30;;;;;;;13.69;62.09;100081.44;227764;1234;139261;-62
2022/10/18 00:28:58;;;;;;;30.40;18.70;;;;;;;13.62;62.02;100078.84;226564;1241;141827;-64
2022/10/18 00:34:03;;;;;;;33.10;17.40;;;;;;;13.55;62.08;100073.05;227510;1237;140076;-65
2022/10/18 00:39:07;;;;;;;;;;;;;;;13.54;62.16;100068.09;226785;1248;139592;-65
2022/10/18 00:44:10;;;;;;;28.70;17.80;;;;;;;13.50;62.17;100071.69;227708;1234;125930;-63
2022/10/18 00:49:29;;;;;;;29.20;18.40;;;;;;;13.48;62.31;100066.45;226906;1249;139472;-63
2022/10/18 00:54:35;;;;;;;28.40;17.40;;;;;;;13.47;62.45;100062.24;227608;1233;139610;-62
2022/10/18 00:59:40;;;;;;;28.10;16.60;;;;;;;13.45;62.34;100064.30;226749;1243;139412;-67
2022/10/18 01:04:47;;;;;;;31.70;18.90;;;;;;;13.41;62.32;100066.84;226995;1241;139832;-64
2022/10/18 01:10:05;;;;;;;25.40;16.50;;;;;;;13.35;62.31;100059.73;227726;1233;139256;-63
2022/10/18 01:15:19;;;;;;;27.20;17.30;;;;;;;13.27;62.51;100058.73;227716;1234;140943;-62
2022/10/18 01:20:46;;;;;;;25.60;15.40;;;;;;;13.21;62.49;100053.02;226901;1241;139172;-62
2022/10/18 01:25:59;;;;;;;24.80;16.00;;;;;;;13.21;62.79;100056.89;226689;1234;140168;-62
2022/10/18 01:31:20;;;;;;;27.10;16.80;;;;;;;13.24;62.66;100062.29;227609;1234;140736;-64
2022/10/18 01:36:26;;;;;;;29.50;16.40;;;;;;;13.21;62.68;100059.21;226677;1246;139516;-62
2022/10/18 01:41:30;;;;;;;30.90;16.60;;;;;;;13.15;62.43;100052.08;227603;1234;140417;-63
2022/10/18 01:46:33;;;;;;;30.40;18.30;;;;;;;13.11;62.48;100051.09;227589;1237;141812;-64
2022/10/18 01:51:36;;;;;;;31.60;17.20;;;;;;;13.08;62.55;100051.80;226916;1241;140894;-62
2022/10/18 01:57:08;;;;;;;29.20;16.60;;;;;;;12.97;62.30;100044.17;227020;1241;139196;-61
2022/10/18 02:02:14;;;;;;;30.80;17.60;;;;;;;12.89;62.59;100045.68;226402;1242;139591;-62
2022/10/18 02:07:40;;;;;;;33.20;17.20;;;;;;;12.81;62.58;100046.30;227732;1242;139872;-62
2022/10/18 02:12:45;;;;;;;;;;;;;;;12.75;62.67;100049.14;227782;1232;139677;-66
2022/10/18 02:17:49;;;;;;;25.90;15.80;;;;;;;12.72;62.82;100049.85;226714;1240;126254;-64
2022/10/18 02:22:55;;;;;;;32.70;16.60;;;;;;;12.74;62.82;100047.25;227675;1234;140440;-66
2022/10/18 02:27:58;;;;;;;28.80;16.30;;;;;;;12.75;62.77;100046.29;226887;1241;139807;-64
2022/10/18 02:33:14;;;;;;;30.10;16.80;;;;;;;12.73;62.83;100043.00;227648;1240;139515;-64
2022/10/18 02:38:19;;;;;;;28.50;16.10;;;;;;;12.70;62.83;100043.17;226923;1247;140039;-64
2022/10/18 02:43:23;;;;;;;;;;;;;;;12.66;62.82;100042.48;226908;1240;139378;-65
2022/10/18 02:48:29;;;;;;;26.00;15.50;;;;;;;12.61;62.75;100039.04;226603;1239;125669;-63
2022/10/18 02:53:37;;;;;;;27.20;15.90;;;;;;;12.55;62.45;100037.05;226800;1249;139385;-66
2022/10/18 02:58:40;;;;;;;27.10;15.80;;;;;;;12.50;63.07;100038.92;226857;1240;139676;-65
2022/10/18 03:03:43;;;;;;;30.30;15.30;;;;;;;12.48;62.85;100041.51;226868;1248;139229;-64
2022/10/18 03:08:46;;;;;;;39.20;15.80;;;;;;;12.50;62.67;100036.98;226844;1250;140130;-64
2022/10/18 03:13:49;;;;;;;50.20;29.20;;;;;;;12.56;63.08;100038.94;226826;1249;140382;-64
2022/10/18 03:18:52;;;;;;;33.40;16.30;;;;;;;12.63;63.27;100036.83;226753;1238;139236;-63
2022/10/18 03:23:57;;;;;;;46.30;25.60;;;;;;;12.65;63.04;100039.94;226794;1241;139537;-63
2022/10/18 03:29:00;;;;;;;32.70;15.40;;;;;;;12.65;62.97;100039.73;226792;1252;139602;-62
2022/10/18 03:34:03;;;;;;;31.00;15.70;;;;;;;12.58;62.57;100042.40;227686;1236;139680;-62
2022/10/18 03:39:06;;;;;;;28.00;15.40;;;;;;;12.52;62.52;100046.48;227637;1241;139493;-62
2022/10/18 03:44:09;;;;;;;30.00;15.40;;;;;;;12.45;62.58;100051.14;226847;1247;139340;-62
2022/10/18 03:49:12;;;;;;;29.40;15.50;;;;;;;12.40;62.65;100051.22;226698;1241;139487;-64
2022/10/18 03:54:15;;;;;;;26.20;14.00;;;;;;;12.41;62.98;100057.23;227754;1239;139168;-64
2022/10/18 03:59:17;;;;;;;33.10;17.00;;;;;;;12.44;63.27;100052.94;226965;1234;139790;-64
2022/10/18 04:04:20;;;;;;;27.00;14.60;;;;;;;12.50;62.92;100045.00;227016;1242;139889;-65
2022/10/18 04:09:23;;;;;;;31.90;15.70;;;;;;;12.51;62.99;100040.66;226854;1241;139750;-64
2022/10/18 04:14:26;;;;;;;28.60;14.50;;;;;;;12.53;63.19;100038.23;226940;1239;139360;-64
2022/10/18 04:19:29;;;;;;;28.70;14.90;;;;;;;12.49;63.00;100043.79;226730;1241;140502;-64
2022/10/18 04:24:32;;;;;;;25.30;13.60;;;;;;;12.41;63.11;100048.48;226852;1241;139327;-63
2022/10/18 04:29:35;;;;;;;21.10;12.90;;;;;;;12.33;62.71;100054.63;226814;1241;139405;-64
2022/10/18 04:34:38;;;;;;;21.50;12.50;;;;;;;12.25;62.81;100054.16;226870;1239;139525;-63
2022/10/18 04:39:45;;;;;;;23.50;11.60;;;;;;;12.15;62.64;100050.92;226807;1237;139651;-63
2022/10/18 04:44:54;;;;;;;17.70;11.30;;;;;;;12.06;62.76;100047.85;226565;1246;139527;-65
2022/10/18 04:49:57;;;;;;;21.40;12.10;;;;;;;12.00;62.68;100049.20;226862;1249;140398;-66
2022/10/18 04:55:02;;;;;;;20.80;11.60;;;;;;;12.01;62.67;100043.48;226853;1241;140148;-63
2022/10/18 05:00:08;;;;;;;24.00;13.90;;;;;;;12.02;63.05;100041.63;227691;1234;139336;-63
2022/10/18 05:05:11;;;;;;;24.30;12.60;;;;;;;12.10;63.16;100046.57;226738;1241;139344;-64
2022/10/18 05:10:16;;;;;;;28.30;13.70;;;;;;;12.12;63.19;100050.02;226788;1249;139613;-63
2022/10/18 05:15:19;;;;;;;23.40;12.60;;;;;;;12.11;63.18;100049.70;226720;1241;139380;-63
2022/10/18 05:20:22;;;;;;;22.70;12.00;;;;;;;12.04;63.20;100051.83;226835;1238;140350;-65
2022/10/18 05:25:25;;;;;;;26.40;12.00;;;;;;;11.98;62.58;100061.93;227661;1226;140248;-68
2022/10/18 05:30:28;;;;;;;22.70;12.70;;;;;;;11.93;62.77;100065.43;226972;1237;139671;-64
2022/10/18 05:35:32;;;;;;;23.50;12.50;;;;;;;11.87;62.86;100068.02;226237;1234;141303;-63
2022/10/18 05:40:37;;;;;;;28.50;12.40;;;;;;;11.88;63.11;100072.44;225713;1241;140150;-64
2022/10/18 05:45:46;;;;;;;27.60;12.30;;;;;;;11.91;62.99;100063.39;226294;1241;140698;-63
2022/10/18 05:50:49;;;;;;;30.00;12.10;;;;;;;11.95;63.14;100066.72;226835;1237;140419;-64
2022/10/18 05:55:52;;;;;;;35.00;12.70;;;;;;;11.97;63.03;100066.95;226901;1241;139018;-62
2022/10/18 06:00:59;;;;;;;35.60;13.30;;;;;;;12.01;63.41;100071.77;226879;1240;140801;-62
2022/10/18 06:06:07;;;;;;;32.00;13.60;;;;;;;12.06;63.41;100076.13;226899;1241;140197;-62
2022/10/18 06:11:16;;;;;;;35.30;13.10;;;;;;;12.10;63.56;100075.41;227693;1233;141268;-67
2022/10/18 06:16:22;;;;;;;35.90;13.60;;;;;;;12.13;63.67;100078.45;226955;1240;139158;-63
2022/10/18 06:21:30;;;;;;;31.30;12.90;;;;;;;12.18;63.91;100076.05;226854;1238;139409;-64
2022/10/18 06:26:33;;;;;;;26.20;13.20;;;;;;;12.30;63.74;100073.11;226815;1241;140502;-61
2022/10/18 06:31:35;;;;;;;27.90;12.50;;;;;;;12.44;64.25;100076.09;226878;1240;139898;-61
2022/10/18 06:36:38;;;;;;;29.50;12.30;;;;;;;12.59;64.02;100074.77;226829;1241;139379;-67
2022/10/18 06:41:41;;;;;;;30.60;13.80;;;;;;;12.71;64.25;100076.26;226914;1241;139162;-67
2022/10/18 06:46:53;;;;;;;33.70;14.00;;;;;;;12.84;64.39;100079.64;227769;1241;139542;-64
2022/10/18 06:51:56;;;;;;;30.60;13.70;;;;;;;12.98;64.38;100082.42;226973;1233;139524;-64
2022/10/18 06:57:01;;;;;;;36.00;13.60;;;;;;;13.12;64.58;100078.27;226842;1231;139403;-66
2022/10/18 07:02:04;;;;;;;31.80;13.60;;;;;;;13.26;64.72;100076.42;226797;1238;140021;-64
2022/10/18 07:07:07;;;;;;;23.40;13.70;;;;;;;13.48;64.93;100069.33;226873;1241;140318;-63
2022/10/18 07:12:10;;;;;;;27.70;14.30;;;;;;;13.76;65.21;100069.27;226911;1249;139306;-63
2022/10/18 07:17:13;;;;;;;27.70;13.70;;;;;;;14.09;65.25;100066.95;226861;1237;139491;-63
2022/10/18 07:22:16;;;;;;;26.40;13.70;;;;;;;14.38;64.99;100066.25;226824;1241;139711;-63
2022/10/18 07:27:19;;;;;;;30.00;13.40;;;;;;;14.64;64.73;100065.42;226897;1235;140495;-64
2022/10/18 07:32:22;;;;;;;27.80;12.50;;;;;;;14.85;64.47;100061.77;226804;1234;141091;-66
2022/10/18 07:37:25;;;;;;;27.80;12.90;;;;;;;15.06;64.18;100055.60;226902;1238;139556;-65
2022/10/18 07:42:34;;;;;;;27.00;13.30;;;;;;;15.26;63.66;100057.70;226633;1241;139328;-64
2022/10/18 07:47:37;;;;;;;;;;;;;;;15.47;63.55;100057.98;226626;1249;139162;-61
2022/10/18 07:52:40;;;;;;;24.30;12.30;;;;;;;15.61;62.88;100056.29;226891;1239;125725;-64
2022/10/18 07:57:43;;;;;;;25.30;12.00;;;;;;;15.79;62.57;100050.67;226835;1241;139980;-61
2022/10/18 08:02:46;;;;;;;19.80;11.50;;;;;;;15.94;61.92;100044.25;227683;1242;139445;-62
2022/10/18 08:07:49;;;;;;;18.30;10.50;;;;;;;16.08;61.54;100035.05;226824;1237;138884;-62
2022/10/18 08:12:52;;;;;;;19.70;10.50;;;;;;;16.23;61.25;100032.39;227627;1231;139515;-63
2022/10/18 08:17:55;;;;;;;16.70;9.80;;;;;;;16.40;60.78;100027.83;227179;1242;141309;-63
2022/10/18 08:22:58;;;;;;;17.10;9.20;;;;;;;16.59;60.64;100028.16;226965;1241;139192;-62
2022/10/18 08:28:03;;;;;;;11.30;8.20;;;;;;;16.77;60.23;100023.40;227695;1235;139468;-63
2022/10/18 08:33:06;;;;;;;18.40;7.90;;;;;;;16.95;59.57;100011.39;226825;1237;140218;-63
2022/10/18 08:38:10;;;;;;;12.20;7.00;;;;;;;17.10;59.14;100009.20;226838;1242;139925;-63
2022/10/18 08:43:39;;;;;;;16.60;6.90;;;;;;;17.23;58.39;100004.48;226927;1242;139908;-63
2022/10/18 08:48:52;;;;;;;13.00;6.40;;;;;;;17.35;58.01;100001.45;226947;1242;141841;-65
2022/10/18 08:54:05;;;;;;;13.10;6.30;;;;;;;17.46;57.44;99999.54;227477;1238;139203;-64
2022/10/18 08:59:12;;;;;;;16.90;6.90;;;;;;;17.56;57.17;99994.30;226809;1241;139383;-65
2022/10/18 09:04:21;;;;;;;11.80;6.80;;;;;;;17.69;57.07;99985.09;227635;1238;138660;-63
2022/10/18 09:09:35;;;;;;;12.80;6.50;;;;;;;17.83;56.57;99978.14;227067;1248;139428;-62
2022/10/18 09:14:54;;;;;;;15.20;6.20;;;;;;;17.94;56.13;99971.32;226775;1234;138637;-62
2022/10/18 09:20:24;;;;;;;190.90;133.20;;;;;;;18.08;55.93;99959.25;226881;1241;139893;-62
2022/10/18 09:25:44;;;;;;;15.30;9.50;;;;;;;18.27;55.72;99948.04;226771;1241;141547;-64
2022/10/18 09:30:57;;;;;;;10.30;5.50;;;;;;;18.43;55.02;99936.58;227651;1226;139680;-65
2022/10/18 09:36:10;;;;;;;11.80;5.90;;;;;;;18.57;54.79;99929.31;227635;1233;139203;-64
2022/10/18 09:41:33;;;;;;;12.40;6.00;;;;;;;18.69;54.60;99927.50;226868;1242;139710;-63
2022/10/18 09:46:39;;;;;;;11.90;5.80;;;;;;;18.80;54.08;99928.35;226829;1241;140400;-63
2022/10/18 09:51:44;;;;;;;17.00;5.60;;;;;;;18.89;53.71;99928.55;226902;1241;139463;-66
2022/10/18 09:57:05;;;;;;;10.00;5.90;;;;;;;18.98;53.50;99918.58;226838;1238;138996;-65
2022/10/18 10:02:16;;;;;;;14.10;5.40;;;;;;;19.13;53.46;99909.81;227026;1234;139229;-64
2022/10/18 10:07:23;;;;;;;7.90;5.40;;;;;;;19.25;53.07;99904.70;226758;1237;139616;-62
2022/10/18 10:12:28;;;;;;;14.20;5.80;;;;;;;19.38;52.80;99895.96;226721;1229;139275;-64
2022/10/18 10:17:32;;;;;;;12.90;4.50;;;;;;;19.54;52.42;99891.56;226754;1238;139636;-63
2022/10/18 10:22:39;;;;;;;6.40;4.60;;;;;;;19.70;51.53;99885.42;226686;1241;139251;-64
2022/10/18 10:27:44;;;;;;;10.70;5.60;;;;;;;19.79;50.80;99877.05;226788;1247;139305;-62
2022/10/18 10:32:50;;;;;;;7.00;4.60;;;;;;;19.90;50.70;99865.11;226923;1241;139552;-63
2022/10/18 10:37:53;;;;;;;7.60;4.10;;;;;;;20.04;50.46;99856.80;226011;1233;140036;-67
2022/10/18 10:43:14;;;;;;;10.00;4.10;;;;;;;20.17;50.43;99852.75;224842;1227;140452;-66
2022/10/18 10:48:51;;;;;;;7.50;4.90;;;;;;;20.28;49.69;99840.77;225025;1232;139246;-65
2022/10/18 10:54:20;;;;;;;6.90;3.70;;;;;;;20.34;49.32;99829.08;225055;1233;140757;-65
2022/10/18 10:59:26;;;;;;;9.00;4.00;;;;;;;20.42;49.14;99819.59;224849;1227;138516;-66
2022/10/18 11:04:31;;;;;;;6.90;4.50;;;;;;;20.45;48.87;99810.20;224929;1233;138852;-64
2022/10/18 11:10:00;;;;;;;6.60;4.40;;;;;;;20.49;48.73;99805.58;224809;1233;139510;-66
2022/10/18 11:15:35;;;;;;;8.40;3.80;;;;;;;20.53;48.32;99793.66;224568;1237;140157;-66
2022/10/18 11:20:57;;;;;;;10.10;4.40;;;;;;;20.57;47.93;99784.83;224982;1227;139219;-65
2022/10/18 11:26:09;;;;;;;7.20;4.50;;;;;;;20.58;47.44;99773.93;225157;1233;139503;-66
2022/10/18 11:31:20;;;;;;;9.20;4.50;;;;;;;20.61;47.21;99763.77;225013;1233;139120;-65
2022/10/18 11:37:06;;;;;;;10.70;4.80;;;;;;;20.68;46.95;99761.47;225039;1233;139189;-65
2022/10/18 11:43:01;;;;;;;7.50;3.90;;;;;;;20.80;45.95;99751.84;224777;1233;138861;-65
2022/10/18 11:48:50;;;;;;;10.00;4.00;;;;;;;20.91;45.12;99740.73;224720;1233;138839;-66
2022/10/18 11:54:13;;;;;;;9.30;4.20;;;;;;;21.04;44.59;99735.52;224650;1232;139303;-66
2022/10/18 11:59:35;;;;;;;5.90;3.90;;;;;;;21.09;44.08;99727.00;224956;1227;139474;-65
2022/10/18 12:04:50;;;;;;;7.60;4.50;;;;;;;21.13;43.81;99721.14;225034;1227;139952;-65
2022/10/18 12:10:19;;;;;;;7.90;5.10;;;;;;;21.21;43.71;99705.80;224959;1226;139112;-66
2022/10/18 12:15:54;;;;;;;9.30;4.60;;;;;;;21.28;43.56;99708.90;224771;1233;138931;-68
2022/10/18 12:20:58;;;;;;;13.20;5.30;;;;;;;21.32;43.42;99698.23;225066;1233;138511;-69
2022/10/18 12:26:05;;;;;;;8.80;4.40;;;;;;;21.37;43.32;99694.91;224884;1227;139030;-65
2022/10/18 12:31:23;;;;;;;11.40;4.50;;;;;;;21.39;42.85;99686.52;225031;1233;138948;-66
2022/10/18 12:36:37;;;;;;;9.60;4.70;;;;;;;21.42;42.64;99682.15;225069;1227;139034;-65
2022/10/18 12:41:40;;;;;;;8.70;4.10;;;;;;;21.44;42.59;99675.96;226874;1241;138808;-64
2022/10/18 12:46:46;;;;;;;6.80;4.10;;;;;;;21.47;42.32;99664.24;227693;1241;138803;-65
2022/10/18 12:51:54;;;;;;;9.20;4.40;;;;;;;21.56;42.36;99653.02;227617;1234;139179;-64
2022/10/18 12:56:59;;;;;;;8.10;4.20;;;;;;;21.65;42.18;99647.77;227524;1235;139117;-63
2022/10/18 13:02:05;;;;;;;9.20;4.10;;;;;;;21.77;41.84;99642.36;226488;1236;139904;-63
2022/10/18 13:07:18;;;;;;;9.90;4.80;;;;;;;21.89;41.32;99638.84;226748;1234;140191;-64
2022/10/18 13:12:21;;;;;;;95.60;70.50;;;;;;;21.97;40.98;99625.04;227450;1229;139222;-63
2022/10/18 13:17:30;;;;;;;7.30;3.90;;;;;;;22.01;40.55;99622.33;226643;1233;139899;-64
2022/10/18 13:23:12;;;;;;;10.30;4.40;;;;;;;22.00;40.27;99613.60;227583;1234;139827;-63
2022/10/18 13:28:21;;;;;;;9.10;3.90;;;;;;;21.97;39.92;99602.63;227345;1241;139289;-64
2022/10/18 13:33:38;;;;;;;9.30;4.40;;;;;;;21.95;39.98;99592.90;226765;1238;139288;-63
2022/10/18 13:39:17;;;;;;;10.60;4.00;;;;;;;21.96;39.94;99583.25;226831;1248;138920;-63
2022/10/18 13:44:38;;;;;;;10.70;3.70;;;;;;;21.96;39.95;99579.21;226552;1241;139083;-63
2022/10/18 13:50:01;;;;;;;8.30;4.00;;;;;;;21.96;39.82;99572.38;226846;1241;138992;-65
2022/10/18 13:55:32;;;;;;;8.20;3.90;;;;;;;21.94;39.71;99566.29;226758;1241;138834;-66
2022/10/18 14:01:06;;;;;;;13.90;4.20;;;;;;;21.94;39.60;99554.49;226874;1248;139281;-65
2022/10/18 14:06:15;;;;;;;16.10;5.10;;;;;;;21.95;39.80;99545.40;226740;1236;139105;-64
2022/10/18 14:11:43;;;;;;;8.80;4.10;;;;;;;21.96;39.91;99548.13;226735;1236;138402;-65
2022/10/18 14:17:20;;;;;;;12.10;4.30;;;;;;;21.96;39.81;99548.48;227542;1234;139128;-63
2022/10/18 14:23:04;;;;;;;8.10;4.40;;;;;;;21.96;39.82;99540.02;226336;1243;139431;-64
2022/10/18 14:28:14;;;;;;;77.10;52.10;;;;;;;21.94;40.01;99534.77;226659;1249;140170;-63
2022/10/18 14:33:58;;;;;;;9.90;5.80;;;;;;;21.93;40.05;99533.96;227606;1233;139407;-66
2022/10/18 14:39:06;;;;;;;9.80;4.80;;;;;;;21.91;40.12;99530.79;227412;1241;139899;-66
2022/10/18 14:44:15;;;;;;;12.50;4.80;;;;;;;21.88;40.34;99527.15;226816;1247;139530;-66
2022/10/18 14:49:19;;;;;;;10.50;5.00;;;;;;;21.83;40.42;99523.51;226610;1249;140080;-65
2022/10/18 14:54:28;;;;;;;8.20;5.00;;;;;;;21.78;40.54;99518.71;226491;1247;140104;-62
2022/10/18 14:59:57;;;;;;;9.80;5.50;;;;;;;21.73;40.71;99512.58;227446;1233;139785;-62
2022/10/18 15:05:19;;;;;;;13.20;5.40;;;;;;;21.66;40.80;99514.14;227527;1234;139154;-61
2022/10/18 15:10:29;;;;;;;13.00;5.30;;;;;;;21.59;41.01;99512.31;227640;1227;139490;-63
2022/10/18 15:15:33;;;;;;;13.60;5.50;;;;;;;21.55;41.22;99507.02;226750;1233;139189;-64
2022/10/18 15:20:41;;;;;;;14.10;5.30;;;;;;;21.51;41.46;99500.34;227613;1233;138759;-63
2022/10/18 15:25:45;;;;;;;8.40;4.90;;;;;;;21.47;41.56;99497.69;227694;1240;139237;-65
2022/10/18 15:30:48;;;;;;;11.90;5.80;;;;;;;21.44;41.78;99497.60;226815;1241;139188;-63
2022/10/18 15:35:52;;;;;;;12.50;5.90;;;;;;;21.41;41.94;99499.32;226947;1233;139238;-64
2022/10/18 15:40:55;;;;;;;15.00;5.70;;;;;;;21.36;41.97;99495.70;227627;1242;139389;-65
2022/10/18 15:46:02;;;;;;;13.00;6.20;;;;;;;21.30;42.14;99487.80;226752;1235;139440;-64
2022/10/18 15:51:31;;;;;;;19.90;5.60;;;;;;;21.22;42.26;99482.27;226803;1240;138930;-62
2022/10/18 15:56:38;;;;;;;13.70;5.60;;;;;;;21.13;42.19;99480.84;226825;1234;138974;-61
2022/10/18 16:01:43;;;;;;;12.60;6.40;;;;;;;21.03;42.53;99484.83;226729;1241;139245;-62
2022/10/18 16:06:46;;;;;;;13.20;6.30;;;;;;;20.93;42.57;99488.92;226448;1237;139486;-61
2022/10/18 16:11:50;;;;;;;13.00;5.80;;;;;;;20.85;42.76;99489.20;226285;1244;139259;-62
2022/10/18 16:17:02;;;;;;;13.40;5.80;;;;;;;20.74;43.03;99484.43;226555;1240;139310;-60
2022/10/18 16:22:05;;;;;;;14.80;6.20;;;;;;;20.64;43.31;99483.13;227497;1226;139304;-62
2022/10/18 16:27:09;;;;;;;14.00;6.20;;;;;;;20.58;43.38;99488.61;226233;1244;139875;-60
2022/10/18 16:32:12;;;;;;;15.20;6.70;;;;;;;20.49;43.46;99487.52;226227;1244;139709;-62
2022/10/18 16:37:14;;;;;;;12.90;6.30;;;;;;;20.41;43.58;99494.48;226397;1236;140085;-65
2022/10/18 16:42:17;;;;;;;15.30;6.70;;;;;;;20.32;43.73;99492.80;226604;1241;139351;-64
2022/10/18 16:47:20;;;;;;;16.00;7.90;;;;;;;20.27;44.02;99493.61;226381;1249;139029;-60
2022/10/18 16:52:23;;;;;;;14.70;7.60;;;;;;;20.22;44.22;99494.33;226382;1238;139062;-62
2022/10/18 16:57:26;;;;;;;18.90;8.80;;;;;;;20.16;44.35;99493.41;226643;1243;139392;-66
2022/10/18 17:02:29;;;;;;;18.60;9.10;;;;;;;20.09;44.54;99493.13;226709;1246;139143;-65
2022/10/18 17:07:32;;;;;;;17.60;8.80;;;;;;;20.03;44.76;99500.80;226776;1242;138927;-64
2022/10/18 17:12:35;;;;;;;18.40;8.40;;;;;;;19.98;44.87;99501.98;227685;1234;139455;-63
2022/10/18 17:17:38;;;;;;;21.80;8.60;;;;;;;19.93;45.06;99508.05;226890;1241;139373;-64
2022/10/18 17:22:41;;;;;;;13.90;7.90;;;;;;;19.86;45.00;99513.21;227750;1227;139838;-62
2022/10/18 17:27:45;;;;;;;18.20;7.60;;;;;;;19.79;45.16;99513.14;227621;1232;139401;-61
2022/10/18 17:32:48;;;;;;;11.90;7.10;;;;;;;19.71;45.20;99515.96;226513;1241;139264;-64
2022/10/18 17:37:52;;;;;;;15.00;6.70;;;;;;;19.64;45.22;99513.90;227354;1232;138866;-63
2022/10/18 17:42:55;;;;;;;12.80;7.20;;;;;;;19.57;45.31;99519.23;226758;1248;139165;-62
2022/10/18 17:47:58;;;;;;;15.90;7.40;;;;;;;19.50;45.36;99522.16;226586;1237;138746;-66
2022/10/18 17:59:15;;;;;;;14.50;7.30;;;;;;;19.38;45.64;99526.48;215462;1245;966591;-65
2022/10/18 18:04:18;;;;;;;17.70;7.60;;;;;;;19.39;45.70;99524.67;224103;1251;139439;-65
2022/10/18 18:09:21;;;;;;;12.60;7.40;;;;;;;19.37;45.73;99528.64;224240;1251;139624;-65
2022/10/18 18:14:24;;;;;;;13.50;8.40;;;;;;;19.30;45.82;99531.08;224241;1250;139599;-65
2022/10/18 18:19:27;;;;;;;15.10;9.20;;;;;;;19.26;45.93;99527.52;224176;1252;139371;-66
2022/10/18 18:24:30;;;;;;;16.00;8.90;;;;;;;19.25;46.13;99527.55;224140;1252;140505;-67
2022/10/18 18:29:33;;;;;;;16.60;8.90;;;;;;;19.25;46.28;99528.62;224277;1244;139287;-66
2022/10/18 18:34:39;;;;;;;16.60;9.30;;;;;;;19.24;46.22;99531.07;225004;1243;139101;-66
2022/10/18 18:39:42;;;;;;;;;;;;;;;19.22;46.37;99526.60;224238;1250;139971;-67
2022/10/18 18:44:45;;;;;;;15.60;9.40;;;;;;;19.19;46.51;99527.26;224271;1242;125753;-65
2022/10/18 18:49:48;;;;;;;39.40;25.50;;;;;;;19.14;46.66;99524.97;224270;1251;139039;-67
2022/10/18 18:54:51;;;;;;;21.70;10.30;;;;;;;19.12;46.77;99525.30;224234;1239;139680;-66
2022/10/18 18:59:54;;;;;;;18.30;9.10;;;;;;;19.12;46.79;99529.45;224161;1248;140024;-66
2022/10/18 19:04:57;;;;;;;14.60;9.00;;;;;;;19.09;47.03;99526.99;224116;1245;139120;-69
2022/10/18 19:10:00;;;;;;;97.70;74.30;;;;;;;19.06;47.19;99527.59;224123;1244;139446;-69
2022/10/18 19:15:03;;;;;;;15.90;9.30;;;;;;;19.07;47.39;99533.86;224145;1251;139433;-67
2022/10/18 19:20:11;;;;;;;23.40;8.90;;;;;;;19.09;47.42;99536.15;224162;1252;140218;-67
2022/10/18 19:25:14;;;;;;;13.10;8.60;;;;;;;19.10;47.59;99539.15;224169;1250;139926;-67
2022/10/18 19:30:18;;;;;;;18.30;8.50;;;;;;;19.12;47.79;99539.67;224130;1246;139330;-66
2022/10/18 19:35:21;;;;;;;12.90;8.20;;;;;;;19.14;47.92;99540.95;224103;1245;139876;-67
2022/10/18 19:40:24;;;;;;;19.70;10.80;;;;;;;19.16;48.21;99543.47;224139;1252;139014;-68
2022/10/18 19:45:27;;;;;;;15.90;8.60;;;;;;;19.19;48.30;99550.80;224100;1255;139469;-67
2022/10/18 19:50:30;;;;;;;13.30;7.80;;;;;;;19.21;48.43;99551.71;224792;1244;140521;-71
2022/10/18 19:55:33;;;;;;;36.00;24.40;;;;;;;19.21;48.63;99556.73;224087;1255;139227;-74
2022/10/18 20:00:36;;;;;;;15.50;8.80;;;;;;;19.21;48.77;99560.69;223938;1253;139561;-73
2022/10/18 20:05:39;;;;;;;16.20;8.20;;;;;;;19.23;48.88;99564.25;224127;1249;139657;-71
2022/10/18 20:10:42;;;;;;;15.60;9.90;;;;;;;19.25;49.09;99570.04;224820;1244;140562;-72
2022/10/18 20:15:48;;;;;;;12.70;9.30;;;;;;;19.25;49.22;99578.45;224134;1254;139098;-74
2022/10/18 20:20:51;;;;;;;;;;;;;;;19.26;49.36;99586.29;224763;1245;138675;-68
2022/10/18 20:25:59;;;;;;;21.10;18.40;;;;;;;19.22;49.65;99595.83;224762;1252;125759;-70
2022/10/18 20:31:16;;;;;;;24.50;14.80;;;;;;;19.20;50.09;99604.30;224048;1254;140026;-69
2022/10/18 20:36:19;;;;;;;16.10;10.20;;;;;;;19.17;50.36;99635.48;224133;1254;139538;-70
2022/10/18 20:41:29;;;;;;;8.30;4.20;;;;;;;19.03;51.08;99650.80;224827;1252;140079;-65
2022/10/18 20:46:34;;;;;;;4.30;2.00;;;;;;;18.85;51.99;99659.34;223967;1260;139674;-67
2022/10/18 20:51:43;;;;;;;;;;;;;;;18.65;52.60;99663.93;224139;1254;140071;-66
2022/10/18 20:56:46;;;;;;;4.90;1.50;;;;;;;18.39;53.34;99658.92;224228;1244;126935;-68
2022/10/18 21:01:49;;;;;;;2.40;1.10;;;;;;;18.21;54.12;99676.95;224743;1245;140006;-65
2022/10/18 21:06:52;;;;;;;4.60;1.10;;;;;;;18.04;54.75;99684.31;224834;1244;141114;-64
2022/10/18 21:11:55;;;;;;;11.20;7.60;;;;;;;17.90;55.50;99700.88;224815;1244;138546;-69
2022/10/18 21:16:58;;;;;;;3.50;1.30;;;;;;;17.84;56.05;99698.36;224129;1248;139242;-70
2022/10/18 21:22:01;;;;;;;1.60;1.00;;;;;;;17.78;56.47;99689.52;224735;1247;139370;-67
2022/10/18 21:27:03;;;;;;;3.70;0.90;;;;;;;17.71;57.06;99688.95;224196;1253;139671;-67
2022/10/18 21:32:06;;;;;;;2.10;1.00;;;;;;;17.65;57.45;99696.38;224141;1252;140307;-70
2022/10/18 21:37:09;;;;;;;0.90;0.70;;;;;;;17.58;57.73;99709.00;224135;1250;139053;-68
2022/10/18 21:42:12;;;;;;;1.70;1.00;;;;;;;17.51;58.06;99718.75;224773;1241;139310;-66
2022/10/18 21:47:15;;;;;;;1.70;0.80;;;;;;;17.46;58.26;99723.81;224114;1254;140790;-68
2022/10/18 21:52:18;;;;;;;3.40;1.70;;;;;;;17.38;58.49;99728.04;224144;1258;139679;-70
2022/10/18 21:57:21;;;;;;;2.50;1.30;;;;;;;17.32;59.16;99717.54;224833;1248;139998;-65
2022/10/18 22:02:25;;;;;;;0.60;0.60;;;;;;;17.32;59.29;99712.16;224051;1242;141244;-68
2022/10/18 22:07:28;;;;;;;1.70;0.60;;;;;;;17.34;59.48;99710.27;224241;1248;141340;-71
2022/10/18 22:12:30;;;;;;;2.70;0.70;;;;;;;17.32;59.43;99710.38;224905;1244;139261;-70
2022/10/18 22:17:35;;;;;;;1.50;0.70;;;;;;;17.25;59.51;99708.41;224241;1257;138415;-70
2022/10/18 22:22:38;;;;;;;0.80;0.60;;;;;;;17.16;59.73;99709.44;224187;1248;139772;-65
2022/10/18 22:27:41;;;;;;;1.40;0.70;;;;;;;17.08;59.91;99707.25;224911;1244;138877;-65
2022/10/18 22:32:44;;;;;;;1.40;1.00;;;;;;;17.00;60.30;99711.64;224157;1251;140131;-70
2022/10/18 22:37:47;;;;;;;1.60;0.60;;;;;;;16.93;60.46;99709.33;224190;1257;139629;-69
2022/10/18 22:42:51;;;;;;;1.90;0.60;;;;;;;16.93;60.27;99708.79;224199;1250;139171;-70
2022/10/18 22:47:54;;;;;;;3.70;2.60;;;;;;;16.95;60.39;99707.34;224233;1251;140345;-69
2022/10/18 22:52:56;;;;;;;2.60;1.60;;;;;;;16.96;60.61;99703.66;224130;1254;138961;-67
2022/10/18 22:57:59;;;;;;;0.70;0.60;;;;;;;16.98;60.70;99707.12;224940;1244;138858;-67
2022/10/18 23:03:02;;;;;;;0.90;0.60;;;;;;;16.99;60.69;99704.55;224826;1244;138508;-64
2022/10/18 23:08:07;;;;;;;1.40;0.60;;;;;;;16.96;60.64;99714.44;224209;1251;138815;-66
2022/10/18 23:13:10;;;;;;;1.00;0.70;;;;;;;16.92;60.75;99718.69;224206;1251;139154;-67
2022/10/18 23:18:13;;;;;;;0.60;0.50;;;;;;;16.88;60.90;99722.46;224840;1244;139447;-68
2022/10/18 23:23:16;;;;;;;0.60;0.60;;;;;;;16.83;61.05;99721.94;224830;1243;139435;-67